Time;durP1;ratioP1;P1;durP2;ratioP2;P2;SDS_P1;SDS_P2;PMS_P1;PMS_P2;Temp;Humidity;BMP_temperature;BMP_pressure;BME280_temperature;BME280_humidity;BME280_pressure;Samples;Min_cycle;Max_cycle;Signal;HPM_P1;HPM_P2
2022/05/06 00:01:49;;;;;;;17.10;6.50;;;15.20;61.40;;;;;;5061978;28;20031;-83
2022/05/06 00:04:15;;;;;;;17.03;6.07;;;15.20;61.40;;;;;;5035667;28;20424;-83
2022/05/06 00:06:41;;;;;;;15.88;5.65;;;15.20;61.60;;;;;;5040237;28;20024;-84
2022/05/06 00:09:06;;;;;;;16.20;5.72;;;15.20;62.30;;;;;;5033014;28;20037;-81
2022/05/06 00:11:33;;;;;;;16.17;6.37;;;15.20;61.60;;;;;;5056760;28;20059;-82
2022/05/06 00:13:59;;;;;;;16.55;6.18;;;15.30;61.90;;;;;;5052855;28;20032;-83
2022/05/06 00:16:26;;;;;;;17.75;6.13;;;15.30;61.90;;;;;;5073469;28;20483;-82
2022/05/06 00:18:52;;;;;;;15.87;6.13;;;15.30;61.90;;;;;;5027448;28;20043;-83
2022/05/06 00:21:19;;;;;;;17.98;6.53;;;15.30;61.90;;;;;;5057371;28;20032;-83
2022/05/06 00:23:45;;;;;;;16.60;6.50;;;15.30;62.10;;;;;;5045234;28;20033;-82
2022/05/06 00:26:11;;;;;;;17.25;6.55;;;15.30;62.10;;;;;;5041771;28;20029;-83
2022/05/06 00:28:37;;;;;;;18.13;6.63;;;15.30;62.20;;;;;;5046446;28;20089;-82
2022/05/06 00:31:04;;;;;;;18.33;6.57;;;15.30;62.40;;;;;;5041169;28;20067;-82
2022/05/06 00:33:30;;;;;;;18.83;6.53;;;15.30;62.40;;;;;;5011048;28;20033;-82
2022/05/06 00:35:58;;;;;;;17.60;6.25;;;15.30;62.40;;;;;;5059863;28;20416;-82
2022/05/06 00:38:24;;;;;;;19.38;7.00;;;15.30;62.60;;;;;;5058713;28;20527;-83
2022/05/06 00:40:50;;;;;;;16.98;6.63;;;15.30;62.60;;;;;;5033577;28;20500;-83
2022/05/06 00:43:16;;;;;;;16.00;6.13;;;15.30;62.60;;;;;;5054716;28;20307;-84
2022/05/06 00:45:48;;;;;;;17.05;6.63;;;15.30;62.60;;;;;;5028580;28;20040;-82
2022/05/06 00:48:15;;;;;;;17.58;6.35;;;15.40;63.50;;;;;;5042931;28;20052;-83
2022/05/06 00:50:43;;;;;;;15.82;6.35;;;15.30;62.70;;;;;;5038797;28;20234;-83
2022/05/06 00:53:09;;;;;;;18.30;5.97;;;15.30;62.70;;;;;;5042150;28;20547;-83
2022/05/06 00:55:36;;;;;;;17.65;6.13;;;15.30;62.80;;;;;;5049554;28;20399;-82
2022/05/06 00:58:06;;;;;;;17.65;5.97;;;15.30;63.00;;;;;;5055251;28;20033;-82
2022/05/06 01:00:32;;;;;;;18.23;6.90;;;15.30;63.40;;;;;;5019841;28;20068;-82
2022/05/06 01:02:58;;;;;;;18.10;7.03;;;15.30;62.90;;;;;;5060065;28;20044;-82
2022/05/06 01:05:24;;;;;;;16.30;6.20;;;15.30;63.00;;;;;;5039169;28;20036;-82
2022/05/06 01:07:51;;;;;;;17.98;6.18;;;15.30;63.00;;;;;;5074936;28;20024;-83
2022/05/06 01:10:18;;;;;;;18.27;6.68;;;15.30;63.20;;;;;;5045215;28;20048;-82
2022/05/06 01:12:44;;;;;;;19.17;6.20;;;15.30;63.30;;;;;;5049314;28;20223;-82
2022/05/06 01:15:20;;;;;;;15.57;6.15;;;15.30;63.20;;;;;;5043550;28;20113;-82
2022/05/06 01:17:50;;;;;;;16.10;6.05;;;15.30;64.10;;;;;;5032290;28;20253;-83
2022/05/06 01:20:17;;;;;;;15.55;6.18;;;15.30;63.70;;;;;;5025732;28;20032;-83
2022/05/06 01:22:44;;;;;;;17.70;6.03;;;15.30;63.40;;;;;;5039136;28;20047;-82
2022/05/06 01:25:11;;;;;;;15.23;5.70;;;15.30;63.50;;;;;;5041945;28;20086;-82
2022/05/06 01:27:43;;;;;;;14.80;5.70;;;15.30;63.50;;;;;;5028917;28;20028;-84
2022/05/06 01:30:12;;;;;;;16.90;6.40;;;15.30;63.70;;;;;;5058938;28;20041;-83
2022/05/06 01:32:38;;;;;;;15.65;6.28;;;15.30;63.70;;;;;;5048788;28;20036;-82
2022/05/06 01:35:05;;;;;;;14.53;5.90;;;15.30;63.60;;;;;;5013611;28;20036;-82
2022/05/06 01:37:34;;;;;;;17.13;6.60;;;15.30;63.70;;;;;;5038946;28;20118;-83
2022/05/06 01:40:03;;;;;;;17.45;6.25;;;15.30;63.80;;;;;;5046763;28;20040;-82
2022/05/06 01:42:31;;;;;;;16.55;6.15;;;15.20;64.00;;;;;;5041541;28;20032;-82
2022/05/06 01:44:57;;;;;;;16.90;6.00;;;15.20;63.90;;;;;;5039302;28;20033;-83
2022/05/06 01:47:27;;;;;;;16.48;6.28;;;15.20;63.80;;;;;;5049529;28;20235;-82
2022/05/06 01:49:58;;;;;;;17.05;6.53;;;15.20;64.30;;;;;;5037853;28;20532;-82
2022/05/06 01:52:25;;;;;;;15.85;6.20;;;15.20;64.50;;;;;;5032842;28;20123;-83
2022/05/06 01:54:50;;;;;;;17.75;6.60;;;15.20;64.20;;;;;;5042444;28;20032;-83
2022/05/06 01:57:17;;;;;;;15.90;5.73;;;15.20;64.20;;;;;;5033545;28;20406;-82
2022/05/06 01:59:42;;;;;;;18.40;6.13;;;15.20;64.20;;;;;;5051037;28;20493;-83
2022/05/06 02:02:08;;;;;;;13.98;5.45;;;15.20;64.20;;;;;;5039281;28;20418;-82
2022/05/06 02:07:17;;;;;;;14.52;5.53;;;15.20;64.20;;;;;;5038473;28;20032;-83
2022/05/06 02:09:43;;;;;;;16.77;5.73;;;15.20;65.00;;;;;;5043156;28;20102;-83
2022/05/06 02:12:09;;;;;;;17.13;6.10;;;15.10;64.20;;;;;;5032051;28;20139;-83
2022/05/06 02:14:35;;;;;;;16.80;6.27;;;15.10;64.40;;;;;;5058658;28;20064;-83
2022/05/06 02:17:00;;;;;;;14.85;6.30;;;15.10;64.40;;;;;;5040865;28;20067;-83
2022/05/06 02:19:26;;;;;;;16.63;6.83;;;15.10;64.40;;;;;;5038782;28;20059;-82
2022/05/06 02:21:52;;;;;;;18.50;6.60;;;15.10;64.50;;;;;;5033814;28;20381;-83
2022/05/06 02:24:17;;;;;;;17.13;6.13;;;15.10;64.50;;;;;;5057073;28;20031;-82
2022/05/06 02:26:43;;;;;;;16.30;6.07;;;15.10;64.60;;;;;;5064635;28;20692;-82
2022/05/06 02:29:09;;;;;;;15.97;6.10;;;15.10;64.60;;;;;;5047863;28;20028;-83
2022/05/06 02:34:20;;;;;;;14.50;5.70;;;15.00;64.60;;;;;;5049652;28;20032;-82
2022/05/06 02:36:46;;;;;;;15.90;5.90;;;15.00;64.50;;;;;;5047598;28;20033;-83
2022/05/06 02:39:12;;;;;;;16.25;6.03;;;15.10;64.80;;;;;;5036723;28;20203;-83
2022/05/06 02:41:37;;;;;;;14.65;6.03;;;15.00;64.70;;;;;;5050643;28;20028;-83
2022/05/06 02:44:04;;;;;;;13.77;5.50;;;15.00;64.70;;;;;;5033693;28;20116;-83
2022/05/06 02:46:31;;;;;;;16.85;6.03;;;15.00;64.80;;;;;;5044552;28;20735;-82
2022/05/06 02:48:57;;;;;;;18.15;6.22;;;14.90;64.90;;;;;;5034000;28;20115;-83
2022/05/06 02:51:23;;;;;;;14.63;5.83;;;14.90;65.00;;;;;;5039891;28;20233;-82
2022/05/06 02:53:48;;;;;;;15.35;5.72;;;14.90;65.10;;;;;;5051700;28;20024;-83
2022/05/06 02:56:14;;;;;;;15.73;5.87;;;14.90;65.20;;;;;;5040539;28;20138;-83
2022/05/06 02:58:39;;;;;;;16.20;6.27;;;14.90;65.20;;;;;;5041670;28;20034;-82
2022/05/06 03:01:05;;;;;;;18.02;6.13;;;14.90;65.30;;;;;;5050009;28;20529;-82
2022/05/06 03:03:33;;;;;;;18.10;6.13;;;14.90;65.30;;;;;;5058358;28;20043;-83
2022/05/06 03:06:00;;;;;;;14.38;5.22;;;14.90;65.40;;;;;;5032331;28;20091;-83
2022/05/06 03:08:26;;;;;;;15.82;5.55;;;14.80;65.30;;;;;;5067910;28;20637;-82
2022/05/06 03:10:51;;;;;;;15.73;6.05;;;14.90;65.40;;;;;;5042534;28;20025;-82
2022/05/06 03:13:17;;;;;;;16.70;6.00;;;14.80;65.40;;;;;;5059167;28;20037;-84
2022/05/06 03:15:43;;;;;;;16.17;5.90;;;14.80;65.40;;;;;;5034010;28;20359;-82
2022/05/06 03:18:09;;;;;;;16.85;6.00;;;14.80;65.50;;;;;;5031514;28;20043;-83
2022/05/06 03:20:34;;;;;;;17.05;5.80;;;14.80;65.50;;;;;;5049538;28;20255;-82
2022/05/06 03:23:00;;;;;;;13.63;5.30;;;14.70;65.60;;;;;;5052011;28;20032;-83
2022/05/06 03:25:26;;;;;;;14.90;5.75;;;14.70;65.60;;;;;;5037490;28;20037;-82
2022/05/06 03:28:07;;;;;;;14.90;5.50;;;14.70;65.60;;;;;;5034081;28;20397;-82
2022/05/06 03:30:39;;;;;;;17.40;5.97;;;14.70;65.60;;;;;;5038037;28;20347;-83
2022/05/06 03:33:09;;;;;;;14.40;4.90;;;14.70;65.60;;;;;;5058331;28;20032;-83
2022/05/06 03:35:37;;;;;;;17.77;6.25;;;14.70;65.80;;;;;;5048011;28;20029;-82
2022/05/06 03:38:04;;;;;;;14.13;5.67;;;14.70;65.90;;;;;;5067807;28;20268;-82
2022/05/06 03:40:30;;;;;;;15.40;5.90;;;14.70;65.90;;;;;;5022284;28;20579;-82
2022/05/06 03:42:55;;;;;;;17.45;6.22;;;14.70;65.90;;;;;;5031701;28;20111;-83
2022/05/06 03:45:21;;;;;;;16.63;5.93;;;14.60;66.00;;;;;;5033898;28;20029;-82
2022/05/06 03:47:46;;;;;;;20.17;6.63;;;14.60;66.00;;;;;;5039020;28;20337;-83
2022/05/06 03:52:56;;;;;;;16.50;5.40;;;14.60;66.10;;;;;;5056190;28;20040;-83
2022/05/06 03:55:22;;;;;;;18.10;5.77;;;14.60;66.10;;;;;;5044929;28;20076;-83
2022/05/06 03:57:48;;;;;;;15.32;5.28;;;14.60;66.20;;;;;;5054257;28;20028;-83
2022/05/06 04:00:15;;;;;;;19.17;5.68;;;14.60;66.30;;;;;;5036301;28;20035;-83
2022/05/06 04:02:41;;;;;;;15.20;5.50;;;14.50;66.40;;;;;;5034616;28;20184;-82
2022/05/06 04:05:07;;;;;;;16.70;5.57;;;14.60;66.40;;;;;;5043660;28;20120;-83
2022/05/06 04:07:33;;;;;;;17.80;5.95;;;14.50;66.40;;;;;;5032012;28;20230;-82
2022/05/06 04:09:59;;;;;;;17.20;5.93;;;14.50;66.50;;;;;;5051028;28;20080;-83
2022/05/06 04:12:24;;;;;;;19.80;6.57;;;14.50;66.60;;;;;;5038333;28;20036;-82
2022/05/06 04:14:50;;;;;;;17.42;5.85;;;14.50;66.70;;;;;;5059722;28;20037;-83
2022/05/06 04:17:17;;;;;;;18.88;5.85;;;14.50;66.80;;;;;;5050111;28;20496;-82
2022/05/06 04:25:16;;;;;;;17.08;5.60;;;14.50;66.90;;;;;;5045897;28;20076;-83
2022/05/06 04:27:42;;;;;;;15.80;5.50;;;14.50;66.80;;;;;;5038271;28;20523;-83
2022/05/06 04:30:09;;;;;;;15.48;5.57;;;14.60;66.80;;;;;;5041248;28;20032;-83
2022/05/06 04:32:35;;;;;;;15.85;5.70;;;14.50;66.90;;;;;;5018349;28;20230;-83
2022/05/06 04:35:04;;;;;;;16.00;5.97;;;14.50;66.80;;;;;;5039824;28;20035;-83
2022/05/06 04:37:30;;;;;;;14.80;5.60;;;14.50;66.90;;;;;;5049563;28;20314;-82
2022/05/06 04:39:56;;;;;;;15.27;5.75;;;14.50;66.80;;;;;;5027505;28;20092;-82
2022/05/06 04:42:22;;;;;;;17.05;5.75;;;14.50;66.90;;;;;;5044992;28;20031;-82
2022/05/06 04:44:47;;;;;;;13.70;5.07;;;14.50;67.10;;;;;;5052992;28;20036;-83
2022/05/06 04:47:13;;;;;;;17.60;5.80;;;14.50;67.10;;;;;;5056072;28;20461;-83
2022/05/06 04:49:39;;;;;;;14.43;5.13;;;14.40;67.10;;;;;;5030375;28;20281;-83
2022/05/06 04:52:04;;;;;;;16.77;5.57;;;14.40;67.10;;;;;;5042833;28;20544;-83
2022/05/06 04:54:30;;;;;;;14.40;5.33;;;14.40;67.20;;;;;;5046736;28;20257;-83
2022/05/06 04:56:56;;;;;;;16.15;5.22;;;14.40;67.40;;;;;;5032232;28;20028;-83
2022/05/06 04:59:22;;;;;;;17.30;5.82;;;14.40;67.40;;;;;;5021769;28;20028;-83
2022/05/06 05:01:50;;;;;;;15.57;5.10;;;14.50;67.50;;;;;;5045533;28;20448;-83
2022/05/06 05:04:16;;;;;;;17.05;5.78;;;14.50;67.90;;;;;;5041176;28;20580;-83
2022/05/06 05:06:42;;;;;;;16.33;5.57;;;14.50;67.70;;;;;;5045587;28;20137;-83
2022/05/06 05:09:08;;;;;;;15.85;5.72;;;14.50;67.50;;;;;;5037026;28;20090;-82
2022/05/06 05:11:34;;;;;;;17.42;6.18;;;14.50;67.50;;;;;;5015933;28;20028;-83
2022/05/06 05:14:03;;;;;;;17.53;6.27;;;14.50;67.50;;;;;;5042556;28;20122;-82
2022/05/06 05:16:31;;;;;;;15.43;5.72;;;14.50;67.60;;;;;;5061117;28;20196;-82
2022/05/06 05:18:57;;;;;;;16.70;5.60;;;14.50;67.90;;;;;;5051865;28;20549;-84
2022/05/06 05:21:22;;;;;;;16.93;5.87;;;14.50;67.40;;;;;;5028743;28;20344;-83
2022/05/06 05:23:48;;;;;;;17.05;5.93;;;14.50;67.40;;;;;;5035483;28;20025;-83
2022/05/06 05:26:14;;;;;;;19.67;6.27;;;14.50;67.70;;;;;;5051369;28;20082;-83
2022/05/06 05:28:39;;;;;;;20.02;6.47;;;14.50;67.70;;;;;;5036833;28;20404;-85
2022/05/06 05:31:05;;;;;;;15.33;5.77;;;14.50;67.90;;;;;;5047543;28;20033;-83
2022/05/06 05:33:31;;;;;;;18.77;5.80;;;14.50;68.10;;;;;;5052154;28;20036;-83
2022/05/06 05:35:56;;;;;;;20.00;6.23;;;14.50;68.10;;;;;;5020808;28;20288;-83
2022/05/06 05:38:22;;;;;;;18.20;5.93;;;14.50;68.20;;;;;;5029594;28;20062;-83
2022/05/06 05:40:48;;;;;;;15.97;5.53;;;14.50;68.40;;;;;;5045423;28;20552;-83
2022/05/06 05:48:42;;;;;;;17.75;5.82;;;14.60;68.20;;;;;;5051861;28;20127;-84
2022/05/06 05:51:08;;;;;;;19.40;5.82;;;14.60;68.10;;;;;;5044470;28;20227;-82
2022/05/06 05:53:34;;;;;;;20.55;6.32;;;14.60;68.10;;;;;;5046675;28;20036;-82
2022/05/06 05:56:00;;;;;;;19.87;6.30;;;14.60;68.20;;;;;;5033074;28;20063;-82
2022/05/06 05:58:26;;;;;;;22.75;6.22;;;14.60;68.10;;;;;;5031949;28;20032;-82
2022/05/06 06:00:52;;;;;;;20.80;6.20;;;14.60;68.20;;;;;;5015668;28;20046;-83
2022/05/06 06:03:18;;;;;;;20.02;5.78;;;14.50;68.20;;;;;;5052414;28;20051;-83
2022/05/06 06:05:44;;;;;;;20.13;6.03;;;14.50;68.20;;;;;;5042441;28;20139;-82
2022/05/06 06:08:10;;;;;;;18.38;5.82;;;14.60;68.40;;;;;;5037078;28;20513;-83
2022/05/06 06:10:36;;;;;;;21.00;6.35;;;14.50;69.20;;;;;;5059876;28;20028;-83
2022/05/06 06:13:04;;;;;;;20.10;6.20;;;14.50;68.70;;;;;;5020151;28;20205;-83
2022/05/06 06:15:30;;;;;;;21.37;6.10;;;14.60;68.90;;;;;;5023935;28;20368;-83
2022/05/06 06:17:56;;;;;;;19.77;6.10;;;14.60;68.70;;;;;;5037656;28;20029;-83
2022/05/06 06:20:23;;;;;;;18.65;6.22;;;14.60;68.70;;;;;;5043993;28;20031;-83
2022/05/06 06:22:50;;;;;;;18.10;5.70;;;14.70;68.80;;;;;;5042805;28;20035;-83
2022/05/06 06:25:15;;;;;;;18.90;6.22;;;14.70;68.80;;;;;;5062449;28;20028;-83
2022/05/06 06:27:41;;;;;;;19.95;6.05;;;14.70;68.90;;;;;;5054540;28;20046;-83
2022/05/06 06:30:08;;;;;;;19.17;6.10;;;14.80;69.30;;;;;;5024564;28;20064;-82
2022/05/06 06:32:33;;;;;;;19.20;5.70;;;14.80;69.50;;;;;;5060707;28;20035;-83
2022/05/06 06:34:59;;;;;;;22.87;6.53;;;14.80;68.60;;;;;;5035224;28;20037;-83
2022/05/06 06:37:25;;;;;;;19.08;6.28;;;14.80;68.70;;;;;;5035828;28;20116;-83
2022/05/06 06:39:51;;;;;;;20.85;6.65;;;14.90;69.00;;;;;;5062191;28;20324;-83
2022/05/06 06:42:17;;;;;;;22.07;6.53;;;14.90;69.10;;;;;;5066415;28;20446;-83
2022/05/06 06:44:42;;;;;;;17.37;5.90;;;14.90;69.00;;;;;;5038932;28;20050;-83
2022/05/06 06:47:09;;;;;;;20.75;6.43;;;15.00;68.80;;;;;;5034810;28;20556;-82
2022/05/06 06:49:36;;;;;;;21.10;6.90;;;15.00;68.80;;;;;;5062716;28;20028;-82
2022/05/06 06:52:02;;;;;;;22.27;6.53;;;15.00;68.50;;;;;;5041401;28;20207;-82
2022/05/06 06:54:28;;;;;;;20.33;6.20;;;15.00;68.60;;;;;;5041071;28;20130;-83
2022/05/06 06:56:54;;;;;;;22.98;6.70;;;15.00;68.70;;;;;;5066808;28;20055;-82
2022/05/06 06:59:19;;;;;;;23.10;6.90;;;15.00;68.70;;;;;;5033371;28;20028;-82
2022/05/06 07:01:45;;;;;;;20.58;5.88;;;15.10;68.80;;;;;;5013460;28;20039;-82
2022/05/06 07:04:10;;;;;;;22.80;7.10;;;15.00;68.60;;;;;;5044388;28;20524;-82
2022/05/06 07:12:18;;;;;;;22.05;6.38;;;15.10;68.60;;;;;;5025373;28;20531;-81
2022/05/06 07:14:43;;;;;;;23.33;7.33;;;15.10;68.70;;;;;;5043467;28;20256;-82
2022/05/06 07:17:09;;;;;;;26.63;7.85;;;15.10;69.00;;;;;;5036415;28;20058;-83
2022/05/06 07:19:35;;;;;;;26.60;8.27;;;15.20;69.10;;;;;;5015894;28;20128;-83
2022/05/06 07:22:01;;;;;;;25.60;7.93;;;15.20;69.10;;;;;;5061822;28;20251;-82
2022/05/06 07:24:27;;;;;;;26.95;8.25;;;15.20;69.10;;;;;;5047914;28;20052;-82
2022/05/06 07:26:53;;;;;;;26.25;8.00;;;15.30;69.10;;;;;;5060109;28;20339;-82
2022/05/06 07:29:19;;;;;;;26.97;8.33;;;15.40;69.10;;;;;;5063935;28;20491;-82
2022/05/06 07:31:45;;;;;;;26.70;8.35;;;15.40;68.90;;;;;;5041294;28;20055;-82
2022/05/06 07:34:11;;;;;;;22.17;7.45;;;15.40;68.80;;;;;;5045194;28;20112;-82
2022/05/06 07:36:42;;;;;;;25.37;8.00;;;15.40;68.80;;;;;;5056453;28;20047;-83
2022/05/06 07:39:11;;;;;;;25.38;7.72;;;15.40;68.80;;;;;;5043934;28;20029;-82
2022/05/06 07:41:38;;;;;;;27.02;8.15;;;15.50;69.10;;;;;;5026310;28;20048;-82
2022/05/06 07:44:04;;;;;;;24.58;7.50;;;15.50;68.90;;;;;;5054775;28;20024;-82
2022/05/06 07:46:30;;;;;;;23.83;7.22;;;15.60;69.00;;;;;;5035944;28;20039;-82
2022/05/06 07:48:56;;;;;;;25.03;7.93;;;15.60;69.00;;;;;;5035173;28;20062;-83
2022/05/06 07:51:22;;;;;;;24.02;7.57;;;15.60;68.90;;;;;;5036477;28;20067;-81
2022/05/06 07:53:49;;;;;;;24.33;8.23;;;15.60;69.50;;;;;;5037619;28;20575;-82
2022/05/06 07:56:15;;;;;;;25.40;8.35;;;15.60;68.70;;;;;;5042142;28;20032;-82
2022/05/06 07:58:40;;;;;;;24.00;7.95;;;15.70;68.80;;;;;;5053877;28;20259;-82
2022/05/06 08:01:07;;;;;;;25.80;7.90;;;15.70;69.00;;;;;;5056095;28;20032;-83
2022/05/06 08:06:17;;;;;;;27.38;8.85;;;15.80;69.10;;;;;;5035097;28;20032;-82
2022/05/06 08:08:42;;;;;;;27.63;9.37;;;15.90;69.20;;;;;;5050357;28;20067;-83
2022/05/06 08:11:08;;;;;;;28.60;9.68;;;16.00;69.10;;;;;;5028161;28;20033;-83
2022/05/06 08:13:34;;;;;;;26.63;8.70;;;16.00;69.00;;;;;;5045336;28;20036;-82
2022/05/06 08:16:00;;;;;;;25.98;8.70;;;16.10;68.90;;;;;;5053941;28;20068;-82
2022/05/06 08:18:26;;;;;;;30.73;9.13;;;16.10;69.00;;;;;;5043864;28;20056;-82
2022/05/06 08:20:52;;;;;;;30.77;9.43;;;16.20;69.10;;;;;;5017995;28;20631;-83
2022/05/06 08:23:22;;;;;;;29.70;9.45;;;16.30;69.10;;;;;;5041249;28;20108;-82
2022/05/06 08:25:52;;;;;;;27.38;9.43;;;16.40;69.20;;;;;;5034691;28;20326;-81
2022/05/06 08:28:19;;;;;;;24.33;8.10;;;16.40;69.00;;;;;;5058290;28;20081;-82
2022/05/06 08:30:47;;;;;;;27.25;8.90;;;16.50;68.90;;;;;;5069910;28;20215;-82
2022/05/06 08:33:13;;;;;;;25.00;8.05;;;16.50;69.50;;;;;;5029231;28;20079;-83
2022/05/06 08:35:41;;;;;;;21.27;7.30;;;16.70;68.80;;;;;;5008410;28;20482;-83
2022/05/06 08:38:08;;;;;;;21.23;7.70;;;16.70;68.90;;;;;;5054217;28;20040;-82
2022/05/06 08:40:35;;;;;;;20.97;7.83;;;16.80;69.00;;;;;;5052379;28;20435;-83
2022/05/06 08:43:02;;;;;;;23.48;8.15;;;16.90;69.00;;;;;;5043941;28;20603;-83
2022/05/06 08:51:00;;;;;;;23.00;7.80;;;17.20;68.90;;;;;;5034365;28;20052;-82
2022/05/06 08:53:31;;;;;;;23.60;7.97;;;17.40;69.20;;;;;;5057296;28;20080;-82
2022/05/06 08:55:58;;;;;;;23.45;8.18;;;17.60;69.20;;;;;;5043000;28;20028;-83
2022/05/06 08:58:26;;;;;;;23.83;8.10;;;17.70;69.00;;;;;;5061607;28;20024;-83
2022/05/06 09:01:02;;;;;;;22.15;8.27;;;17.90;69.20;;;;;;5051246;28;20044;-83
2022/05/06 09:03:27;;;;;;;23.92;8.10;;;18.10;69.00;;;;;;5045483;28;20032;-83
2022/05/06 09:05:55;;;;;;;23.00;8.47;;;18.40;70.30;;;;;;5054481;28;20098;-83
2022/05/06 09:08:21;;;;;;;26.08;9.77;;;18.70;71.00;;;;;;5018407;28;20641;-83
2022/05/06 09:11:09;;;;;;;24.58;9.52;;;19.00;70.50;;;;;;5034216;28;20448;-83
2022/05/06 09:13:55;;;;;;;23.00;8.93;;;19.30;68.60;;;;;;5058044;28;20028;-82
2022/05/06 09:16:41;;;;;;;23.88;8.38;;;19.50;68.20;;;;;;5048396;28;20397;-82
2022/05/06 09:19:13;;;;;;;24.83;9.05;;;19.80;67.90;;;;;;5059639;28;20508;-82
2022/05/06 09:21:41;;;;;;;24.80;9.50;;;19.90;67.20;;;;;;5031564;28;20059;-82
2022/05/06 09:24:17;;;;;;;25.60;9.52;;;20.10;68.10;;;;;;5017722;28;20029;-83
2022/05/06 09:27:05;;;;;;;25.90;10.17;;;20.20;65.90;;;;;;5034290;28;20044;-83
2022/05/06 09:29:35;;;;;;;25.33;10.00;;;20.30;65.80;;;;;;5022262;28;20481;-82
2022/05/06 09:32:13;;;;;;;25.45;10.60;;;20.50;66.60;;;;;;5055561;28;20515;-82
2022/05/06 09:34:40;;;;;;;25.15;10.05;;;20.60;66.30;;;;;;5017286;28;20033;-82
2022/05/06 09:37:07;;;;;;;24.48;9.63;;;20.80;67.30;;;;;;5038326;28;20024;-83
2022/05/06 09:39:32;;;;;;;26.63;10.37;;;21.00;67.10;;;;;;5014892;28;20033;-83
2022/05/06 09:42:03;;;;;;;22.77;9.85;;;21.30;67.40;;;;;;5039905;28;20302;-83
2022/05/06 09:44:30;;;;;;;25.38;10.88;;;21.60;67.60;;;;;;5028942;28;20031;-82
2022/05/06 09:47:10;;;;;;;25.63;10.20;;;22.00;69.20;;;;;;5020573;28;20093;-83
2022/05/06 09:49:43;;;;;;;26.65;11.02;;;22.50;67.50;;;;;;5023646;28;20029;-83
2022/05/06 09:52:13;;;;;;;23.27;11.27;;;23.10;68.20;;;;;;5031898;28;20364;-82
2022/05/06 09:54:41;;;;;;;21.65;10.35;;;23.60;67.70;;;;;;5015330;28;20037;-83
2022/05/06 09:57:09;;;;;;;20.70;9.82;;;24.00;68.00;;;;;;5063217;28;20056;-83
2022/05/06 09:59:36;;;;;;;21.03;10.47;;;24.60;68.00;;;;;;5025213;28;20369;-83
2022/05/06 10:02:02;;;;;;;19.10;9.55;;;25.10;67.50;;;;;;5024024;28;20025;-84
2022/05/06 10:04:27;;;;;;;19.67;10.00;;;25.70;67.20;;;;;;5034406;28;20033;-82
2022/05/06 10:07:01;;;;;;;18.40;9.73;;;26.20;66.30;;;;;;5034926;28;20184;-83
2022/05/06 10:09:31;;;;;;;19.92;9.90;;;26.70;63.50;;;;;;5023698;28;20032;-84
2022/05/06 10:12:04;;;;;;;18.80;9.38;;;27.10;62.80;;;;;;5012000;28;20743;-84
2022/05/06 10:14:31;;;;;;;20.30;11.20;;;27.50;60.90;;;;;;5025001;28;20048;-83
2022/05/06 10:16:56;;;;;;;20.17;11.10;;;27.80;60.20;;;;;;5015865;28;20239;-83
2022/05/06 10:19:38;;;;;;;19.80;10.33;;;28.00;59.60;;;;;;5036848;28;20449;-83
2022/05/06 10:22:05;;;;;;;18.85;10.32;;;28.30;58.10;;;;;;5026258;28;20037;-83
2022/05/06 10:24:49;;;;;;;18.80;10.55;;;28.70;59.00;;;;;;5021735;28;20505;-84
2022/05/06 10:27:22;;;;;;;17.23;9.23;;;28.90;56.60;;;;;;5017099;28;20478;-83
2022/05/06 10:32:55;;;;;;;16.23;8.95;;;29.40;56.60;;;;;;5024775;28;20033;-83
2022/05/06 10:35:38;;;;;;;14.82;8.55;;;29.70;53.10;;;;;;5032693;28;20370;-83
2022/05/06 10:38:26;;;;;;;16.67;9.30;;;29.90;52.40;;;;;;5037454;28;20093;-83
2022/05/06 10:40:59;;;;;;;16.30;9.03;;;30.20;51.10;;;;;;5036547;28;20222;-84
2022/05/06 10:43:45;;;;;;;14.07;8.20;;;30.30;52.90;;;;;;5013248;28;20121;-83
2022/05/06 10:46:10;;;;;;;13.48;7.82;;;30.50;50.30;;;;;;5037808;28;20087;-83
2022/05/06 10:48:36;;;;;;;11.90;7.60;;;30.70;52.40;;;;;;5010906;28;20024;-83
2022/05/06 10:51:22;;;;;;;12.87;7.20;;;30.80;51.70;;;;;;5034678;28;20162;-83
2022/05/06 10:53:48;;;;;;;12.55;7.60;;;31.00;49.30;;;;;;5020591;28;20075;-83
2022/05/06 10:56:16;;;;;;;11.38;6.90;;;31.20;51.10;;;;;;5040115;28;20158;-84
2022/05/06 10:58:43;;;;;;;10.27;6.47;;;31.40;50.70;;;;;;5014775;28;20080;-83
2022/05/06 11:01:17;;;;;;;10.45;6.60;;;31.50;49.50;;;;;;5036426;28;20029;-84
2022/05/06 11:03:53;;;;;;;9.77;5.90;;;31.60;46.50;;;;;;5021592;28;20549;-84
2022/05/06 11:06:23;;;;;;;10.27;6.25;;;31.60;46.30;;;;;;5041318;28;20028;-85
2022/05/06 11:08:49;;;;;;;8.20;5.53;;;31.70;47.40;;;;;;5024536;28;20033;-83
2022/05/06 11:11:17;;;;;;;9.90;5.93;;;31.80;48.00;;;;;;5041100;28;20060;-84
2022/05/06 11:13:45;;;;;;;9.75;5.88;;;31.90;46.80;;;;;;5016679;28;20037;-83
2022/05/06 11:16:12;;;;;;;8.88;5.43;;;32.00;46.30;;;;;;5038250;28;20043;-84
2022/05/06 11:18:45;;;;;;;7.13;4.50;;;32.10;46.20;;;;;;5018482;28;20448;-85
2022/05/06 11:21:23;;;;;;;8.50;5.22;;;32.10;44.30;;;;;;5044371;28;20032;-83
2022/05/06 11:23:49;;;;;;;7.70;5.13;;;32.10;43.10;;;;;;5027208;28;20025;-83
2022/05/06 11:26:30;;;;;;;8.25;5.63;;;32.20;45.00;;;;;;5039944;28;20044;-84
2022/05/06 11:29:01;;;;;;;7.30;4.82;;;32.20;43.10;;;;;;5031695;28;20641;-84
2022/05/06 11:31:28;;;;;;;7.43;4.70;;;32.30;43.60;;;;;;5006232;28;20497;-84
2022/05/06 11:33:57;;;;;;;8.27;5.20;;;32.40;44.70;;;;;;5053775;28;20501;-84
2022/05/06 11:36:22;;;;;;;8.67;5.63;;;32.40;43.50;;;;;;5057421;28;20033;-82
2022/05/06 11:38:48;;;;;;;7.88;4.85;;;32.50;43.50;;;;;;5029728;28;20056;-84
2022/05/06 11:41:17;;;;;;;8.83;5.30;;;32.60;43.30;;;;;;5042700;28;20056;-84
2022/05/06 11:43:45;;;;;;;8.50;5.20;;;32.70;42.20;;;;;;5031781;28;20138;-83
2022/05/06 11:49:05;;;;;;;10.05;5.50;;;32.80;42.20;;;;;;5012197;28;20045;-82
2022/05/06 11:51:39;;;;;;;9.80;6.00;;;33.00;42.70;;;;;;5039107;28;20024;-83
2022/05/06 11:54:05;;;;;;;9.65;5.57;;;33.10;41.80;;;;;;5025407;28;20029;-82
2022/05/06 11:56:33;;;;;;;8.82;5.50;;;33.20;42.10;;;;;;5075594;28;20028;-83
2022/05/06 11:59:00;;;;;;;7.88;5.30;;;33.50;41.80;;;;;;5043102;28;20028;-83
2022/05/06 12:01:31;;;;;;;8.40;5.40;;;33.60;41.60;;;;;;5018021;28;20337;-83
2022/05/06 12:04:07;;;;;;;7.37;4.83;;;33.80;40.00;;;;;;5036800;28;20117;-83
2022/05/06 12:06:38;;;;;;;7.43;5.00;;;33.80;40.00;;;;;;5027710;28;20029;-83
2022/05/06 12:09:11;;;;;;;7.55;5.28;;;33.90;40.20;;;;;;5053100;28;20527;-83
2022/05/06 12:11:37;;;;;;;7.60;5.05;;;33.90;38.50;;;;;;5029268;28;20034;-83
2022/05/06 12:14:10;;;;;;;4.90;3.70;;;34.00;39.50;;;;;;5036636;28;20045;-83
2022/05/06 12:16:36;;;;;;;7.00;4.43;;;34.00;38.50;;;;;;5023560;28;20103;-83
2022/05/06 12:19:02;;;;;;;5.88;4.10;;;34.20;39.10;;;;;;5069579;28;20500;-82
2022/05/06 12:21:28;;;;;;;6.90;4.45;;;34.20;38.70;;;;;;5026744;28;20083;-83
2022/05/06 12:23:59;;;;;;;5.72;4.25;;;34.20;38.00;;;;;;5029731;28;20393;-84
2022/05/06 12:26:34;;;;;;;5.60;3.93;;;34.10;37.20;;;;;;5061651;28;20109;-84
2022/05/06 12:29:01;;;;;;;6.10;3.72;;;34.10;36.80;;;;;;5035199;28;20317;-83
2022/05/06 12:31:29;;;;;;;6.40;4.18;;;34.10;37.90;;;;;;5044587;28;20033;-84
2022/05/06 12:34:07;;;;;;;6.50;3.88;;;34.10;37.20;;;;;;5057316;28;20036;-83
2022/05/06 12:36:34;;;;;;;5.60;3.60;;;34.10;35.70;;;;;;5058387;28;20027;-83
2022/05/06 12:39:00;;;;;;;5.73;3.60;;;34.10;36.80;;;;;;5015402;28;20048;-84
2022/05/06 12:41:32;;;;;;;4.32;3.10;;;34.10;37.10;;;;;;5043758;28;20143;-82
2022/05/06 12:44:20;;;;;;;4.60;3.22;;;34.10;36.60;;;;;;5052609;28;20127;-83
2022/05/06 12:46:47;;;;;;;5.00;3.05;;;34.10;35.50;;;;;;5035793;28;20090;-83
2022/05/06 12:51:57;;;;;;;4.25;3.08;;;34.30;35.60;;;;;;5042394;28;20071;-83
2022/05/06 12:54:26;;;;;;;4.75;3.38;;;34.20;35.70;;;;;;5035884;28;20032;-84
2022/05/06 12:56:51;;;;;;;4.68;3.50;;;34.20;35.40;;;;;;5038324;28;20037;-84
2022/05/06 12:59:17;;;;;;;6.50;3.50;;;34.20;35.80;;;;;;5055273;28;20113;-83
2022/05/06 13:01:43;;;;;;;4.63;3.05;;;34.30;35.70;;;;;;5057727;28;20040;-82
2022/05/06 13:04:08;;;;;;;3.77;2.90;;;34.30;35.70;;;;;;5040027;28;20598;-81
2022/05/06 13:06:34;;;;;;;4.35;2.85;;;34.40;35.20;;;;;;5037771;28;20064;-84
2022/05/06 13:09:00;;;;;;;2.93;2.23;;;34.30;34.50;;;;;;5023839;28;20039;-83
2022/05/06 13:11:26;;;;;;;3.60;2.50;;;34.20;34.10;;;;;;5048078;28;20123;-83
2022/05/06 13:13:52;;;;;;;3.05;2.40;;;34.20;34.20;;;;;;5055242;28;20032;-83
2022/05/06 13:16:18;;;;;;;3.03;2.27;;;34.20;34.40;;;;;;5046484;28;20060;-83
2022/05/06 13:18:43;;;;;;;2.83;2.22;;;34.30;34.50;;;;;;5022919;28;20028;-82
2022/05/06 13:21:10;;;;;;;3.05;2.25;;;34.40;34.30;;;;;;5057519;28;20086;-82
2022/05/06 13:23:37;;;;;;;2.40;2.13;;;34.60;34.00;;;;;;5045756;28;20080;-83